createdAt,value
2018-08-08T00:00:04.540Z,21.20
2018-08-08T00:02:30.851Z,21.21
2018-08-08T00:04:57.179Z,21.06
2018-08-08T00:07:23.503Z,21.21
2018-08-08T00:09:49.817Z,21.22
2018-08-08T00:12:16.130Z,21.22
2018-08-08T00:14:42.440Z,21.32
2018-08-08T00:17:08.758Z,21.12
2018-08-08T00:19:35.071Z,21.03
2018-08-08T00:22:01.379Z,21.05
2018-08-08T00:24:27.694Z,21.00
2018-08-08T00:26:54.009Z,20.92
2018-08-08T00:29:20.321Z,20.92
2018-08-08T00:31:46.635Z,21.07
2018-08-08T00:34:12.989Z,21.19
2018-08-08T00:36:39.339Z,20.97
2018-08-08T00:39:05.643Z,20.77
2018-08-08T00:41:32.015Z,20.88
2018-08-08T00:43:58.385Z,21.01
2018-08-08T00:46:24.651Z,20.96
2018-08-08T00:48:50.962Z,20.70
2018-08-08T00:51:17.267Z,20.52
2018-08-08T00:53:43.579Z,20.52
2018-08-08T00:56:09.889Z,20.58
2018-08-08T00:58:36.240Z,20.52
2018-08-08T01:01:02.551Z,20.38
2018-08-08T01:03:28.861Z,20.44
2018-08-08T01:05:55.167Z,20.37
2018-08-08T01:08:21.581Z,20.38
2018-08-08T01:10:47.787Z,20.50
2018-08-08T01:13:14.138Z,20.61
2018-08-08T01:15:40.452Z,20.42
2018-08-08T01:18:06.765Z,20.48
2018-08-08T01:20:33.093Z,20.57
2018-08-08T01:22:59.397Z,20.59
2018-08-08T01:25:25.746Z,20.64
2018-08-08T01:27:52.056Z,20.69
2018-08-08T01:30:18.372Z,20.82
2018-08-08T01:32:44.681Z,20.67
2018-08-08T01:35:10.992Z,20.34
2018-08-08T01:37:37.298Z,20.10
2018-08-08T01:40:03.615Z,20.02
2018-08-08T01:42:29.923Z,19.94
2018-08-08T01:44:56.236Z,19.93
2018-08-08T01:47:22.551Z,19.95
2018-08-08T01:49:48.862Z,19.91
2018-08-08T01:52:15.171Z,19.89
2018-08-08T01:54:41.480Z,19.86
2018-08-08T01:57:07.791Z,19.81
2018-08-08T01:59:34.106Z,19.85
2018-08-08T02:02:00.457Z,19.79
2018-08-08T02:04:26.784Z,19.70
2018-08-08T02:06:53.088Z,19.72
2018-08-08T02:09:19.407Z,19.77
2018-08-08T02:11:45.730Z,19.89
2018-08-08T02:14:12.048Z,20.09
2018-08-08T02:16:38.356Z,20.14
2018-08-08T02:19:04.669Z,20.08
2018-08-08T02:21:30.979Z,20.12
2018-08-08T02:23:57.293Z,19.90
2018-08-08T02:26:23.604Z,19.79
2018-08-08T02:28:49.921Z,19.71
2018-08-08T02:31:16.237Z,19.60
2018-08-08T02:33:42.546Z,19.45
2018-08-08T02:36:08.864Z,19.30
2018-08-08T02:38:35.174Z,19.25
2018-08-08T02:41:01.481Z,19.15
2018-08-08T02:43:27.795Z,19.28
2018-08-08T02:45:54.106Z,19.16
2018-08-08T02:48:20.421Z,19.14
2018-08-08T02:50:46.735Z,19.23
2018-08-08T02:53:13.057Z,19.43
2018-08-08T02:55:39.357Z,19.40
2018-08-08T02:58:05.709Z,19.27
2018-08-08T03:00:32.015Z,19.15
2018-08-08T03:02:58.335Z,19.16
2018-08-08T03:05:24.645Z,19.13
2018-08-08T03:07:50.961Z,19.10
2018-08-08T03:10:17.268Z,19.36
2018-08-08T03:12:43.575Z,19.58
2018-08-08T03:15:09.889Z,19.47
2018-08-08T03:17:36.199Z,19.36
2018-08-08T03:20:02.507Z,19.30
2018-08-08T03:22:28.818Z,19.26
2018-08-08T03:24:55.122Z,19.17
2018-08-08T03:27:21.436Z,19.11
2018-08-08T03:29:47.750Z,19.03
2018-08-08T03:32:14.061Z,18.98
2018-08-08T03:34:40.374Z,18.88
2018-08-08T03:37:06.684Z,18.88
2018-08-08T03:39:32.993Z,18.84
2018-08-08T03:41:59.300Z,18.84
2018-08-08T03:44:25.609Z,18.88
2018-08-08T03:46:51.920Z,18.87
2018-08-08T03:49:18.267Z,18.85
2018-08-08T03:51:44.572Z,18.82
2018-08-08T03:54:10.885Z,19.01
2018-08-08T03:56:37.191Z,19.10
2018-08-08T03:59:03.564Z,19.14
2018-08-08T04:01:29.847Z,19.36
2018-08-08T04:03:56.154Z,19.42
2018-08-08T04:06:22.460Z,19.54
2018-08-08T04:08:48.767Z,19.38
2018-08-08T04:11:15.081Z,19.50
2018-08-08T04:13:41.387Z,19.59
2018-08-08T04:16:07.706Z,19.68
2018-08-08T04:18:34.017Z,19.72
2018-08-08T04:21:00.330Z,20.02
2018-08-08T04:23:26.635Z,20.05
2018-08-08T04:25:52.944Z,19.95
2018-08-08T04:28:19.260Z,19.92
2018-08-08T04:30:45.568Z,19.94
2018-08-08T04:33:11.896Z,20.00
2018-08-08T04:35:38.204Z,20.03
2018-08-08T04:38:04.523Z,20.06
2018-08-08T04:40:30.838Z,20.09
2018-08-08T04:42:57.149Z,20.30
2018-08-08T04:45:23.462Z,20.64
2018-08-08T04:47:49.768Z,21.00
2018-08-08T04:50:16.088Z,21.18
2018-08-08T04:52:42.407Z,21.35
2018-08-08T04:55:08.760Z,21.46
2018-08-08T04:57:35.070Z,21.59
2018-08-08T05:00:01.424Z,21.66
2018-08-08T05:02:27.738Z,21.89
2018-08-08T05:04:54.122Z,22.09
2018-08-08T05:07:20.434Z,22.26
2018-08-08T05:09:46.749Z,22.48
2018-08-08T05:12:13.071Z,22.85
2018-08-08T05:14:39.388Z,23.00
2018-08-08T05:17:05.725Z,23.10
2018-08-08T05:19:32.037Z,23.20
2018-08-08T05:21:58.389Z,23.34
2018-08-08T05:24:24.709Z,24.13
2018-08-08T05:26:51.091Z,25.16
2018-08-08T05:29:17.405Z,25.28
2018-08-08T05:31:43.717Z,25.82
2018-08-08T05:34:10.030Z,26.02
2018-08-08T05:36:36.336Z,25.99
2018-08-08T05:39:02.661Z,26.28
2018-08-08T05:41:28.988Z,26.67
2018-08-08T05:43:55.337Z,27.03
2018-08-08T05:46:21.650Z,27.40
2018-08-08T05:48:47.972Z,27.54
2018-08-08T05:51:14.300Z,26.85
2018-08-08T05:53:40.612Z,26.36
2018-08-08T05:56:06.929Z,26.32
2018-08-08T05:58:33.277Z,26.77
2018-08-08T06:00:59.592Z,27.40
2018-08-08T06:03:26.024Z,27.24
2018-08-08T06:05:52.339Z,26.94
2018-08-08T06:08:18.658Z,27.14
2018-08-08T06:10:45.006Z,27.40
2018-08-08T06:13:11.368Z,27.43
2018-08-08T06:15:37.684Z,27.71
2018-08-08T06:18:04.049Z,27.57
2018-08-08T06:20:30.364Z,27.72
2018-08-08T06:22:56.678Z,27.88
2018-08-08T06:25:22.982Z,27.66
2018-08-08T06:27:49.296Z,27.59
2018-08-08T06:30:15.644Z,27.28
2018-08-08T06:32:41.952Z,27.32
2018-08-08T06:35:08.324Z,27.14
2018-08-08T06:37:34.577Z,27.24
2018-08-08T06:40:00.894Z,27.23
2018-08-08T06:42:27.205Z,27.90
2018-08-08T06:44:53.522Z,27.94
2018-08-08T06:47:19.843Z,28.10
2018-08-08T06:49:46.160Z,28.07
2018-08-08T06:52:14.704Z,28.44
2018-08-08T06:54:41.016Z,28.56
2018-08-08T06:57:07.335Z,28.73
2018-08-08T06:59:33.654Z,28.88
2018-08-08T07:01:59.972Z,29.27
2018-08-08T07:04:26.289Z,29.14
2018-08-08T07:06:52.610Z,29.24
2018-08-08T07:09:18.922Z,29.28
2018-08-08T07:11:45.242Z,29.55
2018-08-08T07:14:11.613Z,29.97
2018-08-08T07:16:37.916Z,29.35
2018-08-08T07:19:04.231Z,29.08
2018-08-08T07:21:30.544Z,28.92
2018-08-08T07:23:56.899Z,29.52
2018-08-08T07:26:23.210Z,30.02
2018-08-08T07:28:49.525Z,29.87
2018-08-08T07:31:15.845Z,30.16
2018-08-08T07:33:42.186Z,30.02
2018-08-08T07:36:08.503Z,30.09
2018-08-08T07:38:34.817Z,30.33
2018-08-08T07:41:01.135Z,30.50
2018-08-08T07:43:27.449Z,30.69
2018-08-08T07:45:53.756Z,30.89
2018-08-08T07:48:20.076Z,30.75
2018-08-08T07:50:46.395Z,30.87
2018-08-08T07:53:12.712Z,31.11
2018-08-08T07:55:39.020Z,30.75
2018-08-08T07:58:05.383Z,30.74
2018-08-08T08:00:31.645Z,30.88
2018-08-08T08:02:57.952Z,31.19
2018-08-08T08:05:24.300Z,31.20
2018-08-08T08:07:50.608Z,31.04
2018-08-08T08:10:16.918Z,31.05
2018-08-08T08:12:43.245Z,31.18
2018-08-08T08:15:09.551Z,31.62
2018-08-08T08:17:35.860Z,31.71
2018-08-08T08:20:02.178Z,32.01
2018-08-08T08:22:28.491Z,32.33
2018-08-08T08:24:54.850Z,32.26
2018-08-08T08:27:21.132Z,31.65
2018-08-08T08:29:47.482Z,31.80
2018-08-08T08:32:13.774Z,32.19
2018-08-08T08:34:40.092Z,32.36
2018-08-08T08:37:06.400Z,32.33
2018-08-08T08:39:32.720Z,32.43
2018-08-08T08:41:59.032Z,32.82
2018-08-08T08:44:25.351Z,32.01
2018-08-08T08:46:51.657Z,32.34
2018-08-08T08:49:18.010Z,32.23
2018-08-08T08:51:44.319Z,32.27
2018-08-08T08:54:10.627Z,32.20
2018-08-08T08:56:36.931Z,32.50
2018-08-08T08:59:03.302Z,32.53
2018-08-08T09:01:29.618Z,33.11
2018-08-08T09:03:55.930Z,33.61
2018-08-08T09:06:22.245Z,33.36
2018-08-08T09:08:48.550Z,33.56
2018-08-08T09:11:14.877Z,32.87
2018-08-08T09:13:41.196Z,32.21
2018-08-08T09:16:07.508Z,32.81
2018-08-08T09:18:33.817Z,33.09
2018-08-08T09:21:00.125Z,33.22
2018-08-08T09:23:26.454Z,32.92
2018-08-08T09:25:52.764Z,32.53
2018-08-08T09:28:19.083Z,32.00
2018-08-08T09:30:45.433Z,32.30
2018-08-08T09:33:11.726Z,32.66
2018-08-08T09:35:38.043Z,32.49
2018-08-08T09:38:04.382Z,32.46
2018-08-08T09:40:30.677Z,32.68
2018-08-08T09:42:56.994Z,32.57
2018-08-08T09:45:23.311Z,33.09
2018-08-08T09:47:49.624Z,32.39
2018-08-08T09:50:15.931Z,32.63
2018-08-08T09:52:42.279Z,33.12
2018-08-08T09:55:08.569Z,33.62
2018-08-08T09:57:34.871Z,33.26
2018-08-08T10:00:01.241Z,33.78
2018-08-08T10:02:27.552Z,33.26
2018-08-08T10:04:53.862Z,32.68
2018-08-08T10:07:20.186Z,33.08
2018-08-08T10:09:46.509Z,33.58
2018-08-08T10:12:12.892Z,33.99
2018-08-08T10:14:39.162Z,34.24
2018-08-08T10:17:05.491Z,34.38
2018-08-08T10:19:31.783Z,34.41
2018-08-08T10:21:58.111Z,34.56
2018-08-08T10:24:24.419Z,34.42
2018-08-08T10:26:50.740Z,34.30
2018-08-08T10:29:17.083Z,34.80
2018-08-08T10:31:43.370Z,35.00
2018-08-08T10:34:09.707Z,35.35
2018-08-08T10:36:36.031Z,35.48
2018-08-08T10:39:02.342Z,35.46
2018-08-08T10:41:28.651Z,34.58
2018-08-08T10:43:54.967Z,34.03
2018-08-08T10:46:21.284Z,33.74
2018-08-08T10:48:47.595Z,33.68
2018-08-08T10:51:13.909Z,34.00
2018-08-08T10:53:40.206Z,34.15
2018-08-08T10:56:06.512Z,34.47
2018-08-08T10:58:32.860Z,34.50
2018-08-08T11:00:59.151Z,34.31
2018-08-08T11:03:25.443Z,34.37
2018-08-08T11:05:51.747Z,34.25
2018-08-08T11:08:18.046Z,33.94
2018-08-08T11:10:44.347Z,33.41
2018-08-08T11:13:10.654Z,33.29
2018-08-08T11:15:36.956Z,33.93
2018-08-08T11:18:03.251Z,34.07
2018-08-08T11:20:29.551Z,34.47
2018-08-08T11:22:55.840Z,34.60
2018-08-08T11:25:22.140Z,34.35
2018-08-08T11:27:48.442Z,34.72
2018-08-08T11:30:14.822Z,34.39
2018-08-08T11:32:41.041Z,33.96
2018-08-08T11:35:07.347Z,33.30
2018-08-08T11:37:33.673Z,33.16
2018-08-08T11:39:59.975Z,33.72
2018-08-08T11:42:26.277Z,34.44
2018-08-08T11:44:52.571Z,34.19
2018-08-08T11:47:18.866Z,31.28
2018-08-08T11:49:45.160Z,29.83
2018-08-08T11:52:11.480Z,29.39
2018-08-08T11:54:37.786Z,29.27
2018-08-08T11:57:04.089Z,29.59
2018-08-08T11:59:30.393Z,29.47
2018-08-08T12:01:56.714Z,29.38
2018-08-08T12:04:23.073Z,29.84
2018-08-08T12:06:49.428Z,30.15
2018-08-08T12:09:15.726Z,30.54
2018-08-08T12:11:42.022Z,30.62
2018-08-08T12:14:08.340Z,30.89
2018-08-08T12:16:34.673Z,30.95
2018-08-08T12:19:00.978Z,30.50
2018-08-08T12:21:27.263Z,30.83
2018-08-08T12:23:53.596Z,31.30
2018-08-08T12:26:19.891Z,31.46
2018-08-08T12:28:46.193Z,31.22
2018-08-08T12:31:12.502Z,31.12
2018-08-08T12:33:38.848Z,31.23
2018-08-08T12:36:05.150Z,30.74
2018-08-08T12:38:31.453Z,30.65
2018-08-08T12:40:57.790Z,30.82
2018-08-08T12:43:24.089Z,30.93
2018-08-08T12:45:50.385Z,31.38
2018-08-08T12:48:16.693Z,31.41
2018-08-08T12:50:43.027Z,31.11
2018-08-08T12:53:09.327Z,31.17
2018-08-08T12:55:35.684Z,30.74
2018-08-08T12:58:02.014Z,30.46
2018-08-08T13:00:28.318Z,30.32
2018-08-08T13:02:54.613Z,30.37
2018-08-08T13:05:20.913Z,30.42
2018-08-08T13:07:47.214Z,30.65
2018-08-08T13:10:13.517Z,30.48
2018-08-08T13:12:39.832Z,30.21
2018-08-08T13:15:06.130Z,30.25
2018-08-08T13:17:32.423Z,30.43
2018-08-08T13:19:58.721Z,30.28
2018-08-08T13:22:25.020Z,29.88
2018-08-08T13:24:51.377Z,29.66
2018-08-08T13:27:17.633Z,29.96
2018-08-08T13:29:43.976Z,30.23
2018-08-08T13:32:10.299Z,30.17
2018-08-08T13:34:36.613Z,30.25
2018-08-08T13:37:02.935Z,30.27
2018-08-08T13:39:29.253Z,30.28
2018-08-08T13:41:55.558Z,30.50
2018-08-08T13:44:21.884Z,30.39
2018-08-08T13:46:48.194Z,30.17
2018-08-08T13:49:14.509Z,29.95
2018-08-08T13:51:40.826Z,29.98
2018-08-08T13:54:07.142Z,29.75
2018-08-08T13:56:33.465Z,30.01
2018-08-08T13:58:59.788Z,30.29
2018-08-08T14:01:26.143Z,30.42
2018-08-08T14:03:52.465Z,30.35
2018-08-08T14:06:18.828Z,30.20
2018-08-08T14:08:45.183Z,30.37
2018-08-08T14:11:11.492Z,30.27
2018-08-08T14:13:37.836Z,30.34
2018-08-08T14:16:04.141Z,29.92
2018-08-08T14:18:30.535Z,29.68
2018-08-08T14:20:56.807Z,29.59
2018-08-08T14:23:23.160Z,29.53
2018-08-08T14:25:49.514Z,29.39
2018-08-08T14:28:15.834Z,29.28
2018-08-08T14:30:42.184Z,29.32
2018-08-08T14:33:08.490Z,29.31
2018-08-08T14:35:34.839Z,29.52
2018-08-08T14:38:01.114Z,29.72
2018-08-08T14:40:27.424Z,29.85
2018-08-08T14:42:53.736Z,29.64
2018-08-08T14:45:20.093Z,29.59
2018-08-08T14:47:46.407Z,29.72
2018-08-08T14:50:12.761Z,29.64
2018-08-08T14:52:39.100Z,29.58
2018-08-08T14:55:05.408Z,29.78
2018-08-08T14:57:31.756Z,30.00
2018-08-08T14:59:58.064Z,30.16
2018-08-08T15:02:24.377Z,30.17
2018-08-08T15:04:50.686Z,29.98
2018-08-08T15:07:17.000Z,29.78
2018-08-08T15:09:43.312Z,29.75
2018-08-08T15:12:09.619Z,29.74
2018-08-08T15:14:35.923Z,29.91
2018-08-08T15:17:02.232Z,29.93
2018-08-08T15:19:28.540Z,29.80
2018-08-08T15:21:54.857Z,29.78
2018-08-08T15:24:21.168Z,29.80
2018-08-08T15:26:47.481Z,29.79
2018-08-08T15:29:13.789Z,29.78
2018-08-08T15:31:40.181Z,29.71
2018-08-08T15:34:06.403Z,29.68
2018-08-08T15:36:32.855Z,29.75
2018-08-08T15:38:59.059Z,29.68
2018-08-08T15:41:25.423Z,29.65
2018-08-08T15:43:51.724Z,29.59
2018-08-08T15:46:18.031Z,29.53
2018-08-08T15:48:44.354Z,29.34
2018-08-08T15:51:10.682Z,29.29
2018-08-08T15:53:36.972Z,29.22
2018-08-08T15:56:03.320Z,29.23
2018-08-08T15:58:29.630Z,29.17
2018-08-08T16:00:55.941Z,29.09
2018-08-08T16:03:22.256Z,29.08
2018-08-08T16:05:48.567Z,29.05
2018-08-08T16:08:14.876Z,28.97
2018-08-08T16:10:41.187Z,28.85
2018-08-08T16:13:07.497Z,28.76
2018-08-08T16:15:33.807Z,28.74
2018-08-08T16:18:00.119Z,28.60
2018-08-08T16:20:26.420Z,28.52
2018-08-08T16:22:52.730Z,28.48
2018-08-08T16:25:19.030Z,28.51
2018-08-08T16:27:45.376Z,28.53
2018-08-08T16:30:11.685Z,28.47
2018-08-08T16:32:37.999Z,28.37
2018-08-08T16:35:04.308Z,28.33
2018-08-08T16:37:30.631Z,28.26
2018-08-08T16:39:56.940Z,28.14
2018-08-08T16:42:23.252Z,28.03
2018-08-08T16:44:49.562Z,27.99
2018-08-08T16:47:15.875Z,27.95
2018-08-08T16:49:42.185Z,27.87
2018-08-08T16:52:08.509Z,27.79
2018-08-08T16:54:34.821Z,27.69
2018-08-08T16:57:01.178Z,27.68
2018-08-08T16:59:27.440Z,27.57
2018-08-08T17:01:53.767Z,27.46
2018-08-08T17:04:20.074Z,27.40
2018-08-08T17:06:46.379Z,27.38
2018-08-08T17:09:12.692Z,27.36
2018-08-08T17:11:39.056Z,27.33
2018-08-08T17:14:05.365Z,27.24
2018-08-08T17:16:31.672Z,27.15
2018-08-08T17:18:57.981Z,27.08
2018-08-08T17:21:24.291Z,27.07
2018-08-08T17:23:50.590Z,27.00
2018-08-08T17:26:16.905Z,26.96
2018-08-08T17:28:43.206Z,26.96
2018-08-08T17:31:09.527Z,26.94
2018-08-08T17:33:35.887Z,26.97
2018-08-08T17:36:02.197Z,26.98
2018-08-08T17:38:28.511Z,26.93
2018-08-08T17:40:54.819Z,26.85
2018-08-08T17:43:21.242Z,26.81
2018-08-08T17:45:47.439Z,26.79
2018-08-08T17:48:13.747Z,26.75
2018-08-08T17:50:40.056Z,26.70
2018-08-08T17:53:06.371Z,26.62
2018-08-08T17:55:32.675Z,26.52
2018-08-08T17:57:58.984Z,26.48
2018-08-08T18:00:25.342Z,26.47
2018-08-08T18:02:51.700Z,26.44
2018-08-08T18:05:18.003Z,26.40
2018-08-08T18:07:44.369Z,26.27
2018-08-08T18:10:10.625Z,26.17
2018-08-08T18:12:36.936Z,26.12
2018-08-08T18:15:03.244Z,26.08
2018-08-08T18:17:29.555Z,25.93
2018-08-08T18:19:55.874Z,25.87
2018-08-08T18:22:22.206Z,25.85
2018-08-08T18:24:48.533Z,25.85
2018-08-08T18:27:14.888Z,25.84
2018-08-08T18:29:41.204Z,25.83
2018-08-08T18:32:07.520Z,25.80
2018-08-08T18:34:33.832Z,25.75
2018-08-08T18:37:00.144Z,25.68
2018-08-08T18:39:26.448Z,25.65
2018-08-08T18:41:52.755Z,25.59
2018-08-08T18:44:19.089Z,25.58
2018-08-08T18:46:45.415Z,25.57
2018-08-08T18:49:11.824Z,25.56
2018-08-08T18:51:38.048Z,25.52
2018-08-08T18:54:04.384Z,25.52
2018-08-08T18:56:30.690Z,25.48
2018-08-08T18:58:57.014Z,25.47
2018-08-08T19:01:23.345Z,25.41
2018-08-08T19:03:49.651Z,25.36
2018-08-08T19:06:15.960Z,25.30
2018-08-08T19:08:42.270Z,25.25
2018-08-08T19:11:08.585Z,25.20
2018-08-08T19:13:34.949Z,25.12
2018-08-08T19:16:01.264Z,25.09
2018-08-08T19:18:27.590Z,25.08
2018-08-08T19:20:53.901Z,25.06
2018-08-08T19:23:20.234Z,25.03
2018-08-08T19:25:46.562Z,24.96
2018-08-08T19:28:12.927Z,24.91
2018-08-08T19:30:39.255Z,24.85
2018-08-08T19:33:05.561Z,24.78
2018-08-08T19:35:31.887Z,24.75
2018-08-08T19:37:58.203Z,24.81
2018-08-08T19:40:24.507Z,24.80
2018-08-08T19:42:50.874Z,24.83
2018-08-08T19:45:17.194Z,24.80
2018-08-08T19:47:43.543Z,24.66
2018-08-08T19:50:09.883Z,24.61
2018-08-08T19:52:36.206Z,24.53
2018-08-08T19:55:02.541Z,24.46
2018-08-08T19:57:28.851Z,24.39
2018-08-08T19:59:55.183Z,24.31
2018-08-08T20:02:21.573Z,24.23
2018-08-08T20:04:47.890Z,24.28
2018-08-08T20:07:14.213Z,24.30
2018-08-08T20:09:40.528Z,24.26
2018-08-08T20:12:06.851Z,24.21
2018-08-08T20:14:33.216Z,24.20
2018-08-08T20:16:59.547Z,24.11
2018-08-08T20:19:25.854Z,24.10
2018-08-08T20:21:52.182Z,24.08
2018-08-08T20:24:18.489Z,24.06
2018-08-08T20:26:44.857Z,23.99
2018-08-08T20:29:11.189Z,23.95
2018-08-08T20:31:37.514Z,23.96
2018-08-08T20:34:03.846Z,24.00
2018-08-08T20:36:30.154Z,23.98
2018-08-08T20:38:56.464Z,24.00
2018-08-08T20:41:22.777Z,24.02
2018-08-08T20:43:49.089Z,24.01
2018-08-08T20:46:15.396Z,24.03
2018-08-08T20:48:41.704Z,24.07
2018-08-08T20:51:08.012Z,24.02
2018-08-08T20:53:34.323Z,23.91
2018-08-08T20:56:00.628Z,23.80
2018-08-08T20:58:26.944Z,23.70
2018-08-08T21:00:53.272Z,23.60
2018-08-08T21:03:19.564Z,23.56
2018-08-08T21:05:45.875Z,23.49
2018-08-08T21:08:12.188Z,23.47
2018-08-08T21:10:38.494Z,23.44
2018-08-08T21:13:04.803Z,23.35
2018-08-08T21:15:31.112Z,23.21
2018-08-08T21:17:57.456Z,23.11
2018-08-08T21:20:23.736Z,22.98
2018-08-08T21:22:50.045Z,22.86
2018-08-08T21:25:16.360Z,22.80
2018-08-08T21:27:42.673Z,22.78
2018-08-08T21:30:09.042Z,22.71
2018-08-08T21:32:35.374Z,22.65
2018-08-08T21:37:33.465Z,22.55
2018-08-08T21:39:59.777Z,22.49
2018-08-08T21:42:26.141Z,22.42
2018-08-08T21:44:52.446Z,22.33
2018-08-08T21:47:18.832Z,22.30
2018-08-08T21:49:45.119Z,22.30
2018-08-08T21:52:11.444Z,22.27
2018-08-08T21:54:37.784Z,22.11
2018-08-08T21:57:04.149Z,22.11
2018-08-08T21:59:30.461Z,22.08
2018-08-08T22:01:56.790Z,22.09
2018-08-08T22:04:23.095Z,22.13
2018-08-08T22:06:49.406Z,22.12
2018-08-08T22:09:15.718Z,22.13
2018-08-08T22:11:42.025Z,22.12
2018-08-08T22:14:08.335Z,22.09
2018-08-08T22:16:34.652Z,22.08
2018-08-08T22:19:00.966Z,22.05
2018-08-08T22:21:27.280Z,22.01
2018-08-08T22:23:53.605Z,21.99
2018-08-08T22:26:19.914Z,21.99
2018-08-08T22:28:46.225Z,21.96
2018-08-08T22:31:12.538Z,21.90
2018-08-08T22:33:38.891Z,21.86
2018-08-08T22:36:05.212Z,21.88
2018-08-08T22:38:31.562Z,21.90
2018-08-08T22:40:57.874Z,21.89
2018-08-08T22:43:24.183Z,21.94
2018-08-08T22:45:50.544Z,21.95
2018-08-08T22:48:16.864Z,21.95
2018-08-08T22:50:43.178Z,21.95
2018-08-08T22:53:09.494Z,21.92
2018-08-08T22:55:35.800Z,21.92
2018-08-08T22:58:02.162Z,21.91
2018-08-08T23:00:28.466Z,21.90
2018-08-08T23:02:54.784Z,21.87
2018-08-08T23:05:21.096Z,21.86
2018-08-08T23:07:47.408Z,21.81
2018-08-08T23:10:13.716Z,21.75
2018-08-08T23:12:40.024Z,21.66
2018-08-08T23:15:06.336Z,21.60
2018-08-08T23:17:32.645Z,21.58
2018-08-08T23:19:58.973Z,21.52
2018-08-08T23:22:25.303Z,21.48
2018-08-08T23:24:51.611Z,21.45
2018-08-08T23:27:17.923Z,21.44
2018-08-08T23:29:44.227Z,21.45
2018-08-08T23:32:10.535Z,21.43
2018-08-08T23:34:36.853Z,21.41
2018-08-08T23:37:03.171Z,21.41
2018-08-08T23:39:29.479Z,21.41
2018-08-08T23:41:55.791Z,21.41
2018-08-08T23:44:22.104Z,21.40
2018-08-08T23:46:48.450Z,21.37
2018-08-08T23:49:14.763Z,21.34
2018-08-08T23:51:41.081Z,21.32
2018-08-08T23:54:07.388Z,21.32
2018-08-08T23:56:33.700Z,21.29
2018-08-08T23:59:00.011Z,21.24
